createdAt,value
2022-08-05T00:00:17.627Z,48.37
2022-08-05T00:02:50.734Z,48.68
2022-08-05T00:06:01.638Z,48.76
2022-08-05T00:08:05.716Z,48.71
2022-08-05T00:10:51.901Z,48.36
2022-08-05T00:13:18.539Z,49.04
2022-08-05T00:15:58.128Z,49.27
2022-08-05T00:18:26.854Z,49.31
2022-08-05T00:20:55.984Z,49.20
2022-08-05T00:23:44.831Z,49.11
2022-08-05T00:26:10.266Z,49.07
2022-08-05T00:28:37.692Z,49.53
2022-08-05T00:31:07.722Z,49.38
2022-08-05T00:34:53.476Z,49.35
2022-08-05T00:37:09.839Z,49.45
2022-08-05T00:39:13.714Z,49.72
2022-08-05T00:41:51.790Z,49.53
2022-08-05T00:44:21.407Z,49.73
2022-08-05T00:46:54.269Z,49.74
2022-08-05T00:49:32.764Z,50.11
2022-08-05T00:52:10.932Z,50.39
2022-08-05T00:54:38.629Z,50.67
2022-08-05T00:57:05.196Z,50.81
2022-08-05T00:59:34.565Z,51.57
2022-08-05T01:02:11.240Z,51.86
2022-08-05T01:04:37.837Z,51.94
2022-08-05T01:07:08.649Z,51.58
2022-08-05T01:09:41.797Z,51.16
2022-08-05T01:12:18.013Z,51.20
2022-08-05T01:15:03.831Z,50.81
2022-08-05T01:17:39.985Z,50.25
2022-08-05T01:20:40.361Z,49.23
2022-08-05T01:23:23.445Z,49.29
2022-08-05T01:26:20.857Z,49.37
2022-08-05T01:29:05.085Z,48.78
2022-08-05T01:31:44.874Z,48.74
2022-08-05T01:34:21.968Z,49.54
2022-08-05T01:37:07.807Z,49.53
2022-08-05T01:39:45.973Z,49.03
2022-08-05T01:42:17.516Z,49.19
2022-08-05T01:44:53.876Z,48.76
2022-08-05T01:47:22.397Z,48.45
2022-08-05T01:50:01.514Z,48.66
2022-08-05T01:52:31.541Z,48.46
2022-08-05T01:55:04.670Z,48.73
2022-08-05T01:58:10.636Z,48.64
2022-08-05T02:00:29.974Z,48.19
2022-08-05T02:03:29.114Z,48.70
2022-08-05T02:06:01.136Z,48.25
2022-08-05T02:08:31.615Z,48.67
2022-08-05T02:11:23.899Z,48.45
2022-08-05T02:14:12.924Z,48.33
2022-08-05T02:16:55.148Z,48.49
2022-08-05T02:19:34.317Z,48.53
2022-08-05T02:22:26.512Z,48.72
2022-08-05T02:25:08.545Z,48.81
2022-08-05T02:27:59.192Z,49.26
2022-08-05T02:30:35.209Z,48.85
2022-08-05T02:33:02.870Z,49.32
2022-08-05T02:35:33.339Z,49.16
2022-08-05T02:38:05.961Z,49.61
2022-08-05T02:40:38.003Z,49.25
2022-08-05T02:43:07.279Z,48.97
2022-08-05T02:45:51.491Z,49.60
2022-08-05T02:48:29.042Z,49.29
2022-08-05T02:50:59.844Z,50.10
2022-08-05T02:53:28.548Z,49.76
2022-08-05T02:56:08.323Z,49.92
2022-08-05T02:58:36.721Z,49.40
2022-08-05T03:01:14.591Z,50.36
2022-08-05T03:04:02.984Z,50.24
2022-08-05T03:06:56.160Z,49.96
2022-08-05T03:09:17.920Z,50.18
2022-08-05T03:12:04.458Z,50.47
2022-08-05T03:14:30.904Z,50.35
2022-08-05T03:16:57.348Z,50.72
2022-08-05T03:19:34.553Z,50.93
2022-08-05T03:22:05.004Z,50.81
2022-08-05T03:24:46.941Z,50.78
2022-08-05T03:27:14.195Z,51.13
2022-08-05T03:29:45.313Z,50.87
2022-08-05T03:32:30.839Z,51.35
2022-08-05T03:34:59.547Z,51.35
2022-08-05T03:37:27.330Z,51.82
2022-08-05T03:40:01.472Z,52.15
2022-08-05T03:42:31.967Z,51.63
2022-08-05T03:44:58.964Z,51.87
2022-08-05T03:47:35.243Z,52.08
2022-08-05T03:50:02.137Z,52.12
2022-08-05T03:52:50.624Z,51.96
2022-08-05T03:56:09.454Z,52.09
2022-08-05T03:58:22.715Z,52.79
2022-08-05T04:00:57.755Z,52.72
2022-08-05T04:03:29.294Z,52.76
2022-08-05T04:05:58.020Z,52.49
2022-08-05T04:08:34.905Z,52.45
2022-08-05T04:11:07.354Z,52.64
2022-08-05T04:13:50.336Z,52.76
2022-08-05T04:16:24.931Z,52.32
2022-08-05T04:18:57.762Z,52.96
2022-08-05T04:22:05.096Z,53.27
2022-08-05T04:24:14.232Z,53.54
2022-08-05T04:26:46.707Z,53.18
2022-08-05T04:29:13.288Z,53.12
2022-08-05T04:31:40.919Z,53.57
2022-08-05T04:34:31.139Z,53.57
2022-08-05T04:36:54.485Z,53.32
2022-08-05T04:39:21.706Z,53.83
2022-08-05T04:41:51.203Z,53.38
2022-08-05T04:44:21.247Z,53.59
2022-08-05T04:46:55.612Z,53.74
2022-08-05T04:49:24.613Z,53.65
2022-08-05T04:52:05.079Z,53.67
2022-08-05T04:54:34.292Z,53.85
2022-08-05T04:57:00.723Z,53.80
2022-08-05T04:59:36.819Z,54.06
2022-08-05T05:02:37.370Z,53.73
2022-08-05T05:04:52.511Z,54.42
2022-08-05T05:07:29.525Z,54.52
2022-08-05T05:09:59.068Z,54.57
2022-08-05T05:12:29.099Z,54.63
2022-08-05T05:14:55.575Z,54.57
2022-08-05T05:17:24.590Z,55.11
2022-08-05T05:20:09.221Z,54.67
2022-08-05T05:22:35.826Z,54.88
2022-08-05T05:25:17.101Z,54.49
2022-08-05T05:27:53.493Z,54.92
2022-08-05T05:30:30.927Z,54.57
2022-08-05T05:33:08.792Z,54.33
2022-08-05T05:35:43.457Z,54.88
2022-08-05T05:38:12.880Z,54.28
2022-08-05T05:40:48.103Z,54.66
2022-08-05T05:43:27.895Z,54.79
2022-08-05T05:46:08.487Z,54.62
2022-08-05T05:48:41.729Z,54.28
2022-08-05T05:51:15.511Z,54.14
2022-08-05T05:53:46.142Z,54.27
2022-08-05T05:56:31.827Z,54.06
2022-08-05T05:59:03.313Z,54.08
2022-08-05T06:01:38.130Z,53.01
2022-08-05T06:04:07.294Z,54.04
2022-08-05T06:06:35.106Z,53.80
2022-08-05T06:09:04.100Z,53.46
2022-08-05T06:11:31.445Z,53.39
2022-08-05T06:13:57.997Z,53.16
2022-08-05T06:16:32.782Z,52.97
2022-08-05T06:19:01.828Z,52.17
2022-08-05T06:21:36.881Z,52.54
2022-08-05T06:24:14.605Z,52.60
2022-08-05T06:26:52.269Z,52.50
2022-08-05T06:29:25.306Z,51.99
2022-08-05T06:32:25.190Z,51.66
2022-08-05T06:34:57.358Z,51.75
2022-08-05T06:37:55.905Z,51.24
2022-08-05T06:40:18.278Z,51.04
2022-08-05T06:42:48.119Z,51.28
2022-08-05T06:45:20.708Z,51.05
2022-08-05T06:48:36.175Z,51.06
2022-08-05T06:50:34.687Z,51.19
2022-08-05T06:53:11.395Z,51.01
2022-08-05T06:55:38.230Z,50.59
2022-08-05T06:58:29.159Z,50.35
2022-08-05T07:00:55.415Z,50.23
2022-08-05T07:03:21.848Z,50.10
2022-08-05T07:05:59.122Z,50.02
2022-08-05T07:08:25.613Z,50.69
2022-08-05T07:10:52.930Z,51.16
2022-08-05T07:13:59.431Z,51.00
2022-08-05T07:17:56.816Z,52.13
2022-08-05T07:22:28.116Z,51.11
2022-08-05T07:24:56.063Z,50.38
2022-08-05T07:27:23.000Z,50.22
2022-08-05T07:30:28.172Z,49.77
2022-08-05T07:32:43.288Z,49.46
2022-08-05T07:36:03.735Z,49.57
2022-08-05T07:38:00.721Z,49.23
2022-08-05T07:40:32.268Z,49.17
2022-08-05T07:42:59.623Z,49.01
2022-08-05T07:45:58.102Z,49.30
2022-08-05T07:49:00.468Z,49.58
2022-08-05T07:51:05.453Z,49.51
2022-08-05T07:53:50.469Z,49.20
2022-08-05T07:57:01.506Z,48.49
2022-08-05T07:59:04.078Z,47.92
2022-08-05T08:01:30.544Z,47.66
2022-08-05T08:03:57.005Z,47.58
2022-08-05T08:06:24.027Z,47.52
2022-08-05T08:08:54.749Z,47.39
2022-08-05T08:11:27.815Z,47.15
2022-08-05T08:14:07.634Z,46.97
2022-08-05T08:16:50.154Z,47.25
2022-08-05T08:20:10.890Z,47.21
2022-08-05T08:22:05.753Z,46.11
2022-08-05T08:24:51.070Z,46.17
2022-08-05T08:27:18.541Z,45.89
2022-08-05T08:30:04.118Z,45.59
2022-08-05T08:32:34.273Z,45.53
2022-08-05T08:35:13.554Z,45.37
2022-08-05T08:37:40.224Z,45.23
2022-08-05T08:40:12.597Z,45.07
2022-08-05T08:42:50.515Z,44.70
2022-08-05T08:45:26.799Z,44.95
2022-08-05T08:48:12.635Z,44.51
2022-08-05T08:51:03.563Z,44.18
2022-08-05T08:53:37.741Z,44.11
2022-08-05T08:56:07.078Z,43.33
2022-08-05T08:58:43.192Z,43.13
2022-08-05T09:01:15.805Z,43.24
2022-08-05T09:03:45.699Z,43.43
2022-08-05T09:06:15.796Z,43.71
2022-08-05T09:08:45.612Z,43.04
2022-08-05T09:11:13.996Z,43.38
2022-08-05T09:14:09.997Z,42.62
2022-08-05T09:16:28.524Z,42.33
2022-08-05T09:18:55.998Z,41.42
2022-08-05T09:25:24.518Z,42.01
2022-08-05T09:28:15.707Z,42.20
2022-08-05T09:31:22.120Z,41.10
2022-08-05T09:33:58.376Z,41.38
2022-08-05T09:36:38.665Z,40.71
2022-08-05T09:39:22.461Z,40.67
2022-08-05T09:42:00.411Z,40.56
2022-08-05T09:44:39.706Z,40.88
2022-08-05T09:47:20.872Z,40.59
2022-08-05T09:50:01.114Z,41.16
2022-08-05T09:52:36.151Z,40.71
2022-08-05T09:55:56.084Z,40.87
2022-08-05T09:57:59.807Z,39.88
2022-08-05T10:00:30.546Z,39.90
2022-08-05T10:02:58.012Z,38.84
2022-08-05T10:09:25.320Z,39.55
2022-08-05T10:12:18.621Z,38.95
2022-08-05T10:15:12.787Z,39.09
2022-08-05T10:17:47.172Z,38.44
2022-08-05T10:20:23.162Z,37.82
2022-08-05T10:22:51.872Z,38.31
2022-08-05T10:25:19.619Z,37.58
2022-08-05T10:28:12.768Z,38.33
2022-08-05T10:31:20.751Z,37.16
2022-08-05T10:33:24.242Z,37.37
2022-08-05T10:35:59.661Z,37.54
2022-08-05T10:38:33.283Z,37.78
2022-08-05T10:41:45.200Z,39.08
2022-08-05T10:44:18.103Z,39.04
2022-08-05T10:46:56.361Z,38.82
2022-08-05T10:49:26.629Z,37.51
2022-08-05T10:52:00.383Z,37.46
2022-08-05T10:55:05.762Z,37.85
2022-08-05T10:57:34.138Z,37.58
2022-08-05T11:00:19.671Z,36.81
2022-08-05T11:03:25.915Z,37.01
2022-08-05T11:06:15.301Z,35.92
2022-08-05T11:09:32.167Z,36.82
2022-08-05T11:12:26.738Z,36.26
2022-08-05T11:15:21.686Z,35.74
2022-08-05T11:17:59.486Z,35.29
2022-08-05T11:20:44.606Z,35.02
2022-08-05T11:23:25.981Z,35.64
2022-08-05T11:26:10.618Z,36.28
2022-08-05T11:28:43.118Z,36.09
2022-08-05T11:31:10.171Z,35.94
2022-08-05T11:33:52.411Z,36.18
2022-08-05T11:36:42.761Z,35.88
2022-08-05T11:39:10.305Z,36.14
2022-08-05T11:42:02.066Z,36.82
2022-08-05T11:44:40.347Z,36.10
2022-08-05T11:47:48.581Z,35.99
2022-08-05T11:50:10.265Z,35.19
2022-08-05T11:52:41.617Z,35.21
2022-08-05T11:55:11.325Z,35.14
2022-08-05T11:58:10.797Z,34.21
2022-08-05T12:00:32.527Z,34.04
2022-08-05T12:03:31.506Z,33.82
2022-08-05T12:06:06.403Z,33.52
2022-08-05T12:08:50.025Z,34.74
2022-08-05T12:11:28.426Z,35.18
2022-08-05T12:14:11.172Z,35.20
2022-08-05T12:16:40.055Z,36.04
2022-08-05T12:20:25.897Z,36.73
2022-08-05T12:21:58.554Z,37.07
2022-08-05T12:24:27.656Z,36.43
2022-08-05T12:26:54.645Z,35.72
2022-08-05T12:29:24.582Z,37.11
2022-08-05T12:31:56.158Z,36.11
2022-08-05T12:34:28.245Z,36.83
2022-08-05T12:36:56.894Z,37.13
2022-08-05T12:39:28.064Z,36.32
2022-08-05T12:42:01.447Z,36.54
2022-08-05T12:44:33.156Z,37.16
2022-08-05T12:47:02.715Z,35.67
2022-08-05T12:50:03.017Z,36.21
2022-08-05T12:52:39.507Z,36.06
2022-08-05T12:55:22.494Z,35.05
2022-08-05T12:58:48.268Z,34.59
2022-08-05T13:02:03.364Z,35.80
2022-08-05T13:03:32.558Z,34.70
2022-08-05T13:05:59.811Z,33.91
2022-08-05T13:08:30.217Z,34.41
2022-08-05T13:11:01.210Z,34.61
2022-08-05T13:14:05.324Z,35.59
2022-08-05T13:16:17.133Z,34.56
2022-08-05T13:18:55.198Z,35.99
2022-08-05T13:21:28.153Z,36.06
2022-08-05T13:24:04.427Z,35.28
2022-08-05T13:26:30.895Z,35.73
2022-08-05T13:28:58.966Z,35.63
2022-08-05T13:31:33.714Z,34.87
2022-08-05T13:34:22.684Z,34.51
2022-08-05T13:36:52.227Z,35.49
2022-08-05T13:40:12.752Z,35.37
2022-08-05T13:42:07.296Z,36.09
2022-08-05T13:44:34.683Z,35.36
2022-08-05T13:47:04.956Z,34.82
2022-08-05T13:49:35.814Z,33.89
2022-08-05T13:52:16.724Z,34.04
2022-08-05T13:54:43.984Z,34.86
2022-08-05T13:57:20.800Z,34.85
2022-08-05T13:59:57.288Z,34.13
2022-08-05T14:02:26.501Z,33.91
2022-08-05T14:05:11.459Z,34.00
2022-08-05T14:07:59.499Z,33.84
2022-08-05T14:10:31.040Z,34.40
2022-08-05T14:12:58.208Z,35.63
2022-08-05T14:16:08.274Z,35.49
2022-08-05T14:18:15.025Z,34.58
2022-08-05T14:20:47.505Z,35.49
2022-08-05T14:23:25.109Z,35.52
2022-08-05T14:25:58.205Z,36.27
2022-08-05T14:28:27.857Z,36.15
2022-08-05T14:30:55.674Z,36.71
2022-08-05T14:33:23.858Z,36.65
2022-08-05T14:35:51.697Z,36.34
2022-08-05T14:38:31.788Z,36.76
2022-08-05T14:41:00.071Z,36.62
2022-08-05T14:44:01.780Z,36.64
2022-08-05T14:46:13.103Z,37.18
2022-08-05T14:48:39.590Z,36.91
2022-08-05T14:51:06.199Z,37.98
2022-08-05T14:53:35.070Z,37.50
2022-08-05T14:56:11.609Z,37.92
2022-08-05T14:58:38.607Z,38.71
2022-08-05T15:01:16.085Z,38.46
2022-08-05T15:03:43.303Z,39.60
2022-08-05T15:06:15.163Z,39.71
2022-08-05T15:09:01.210Z,39.46
2022-08-05T15:11:52.407Z,39.06
2022-08-05T15:14:33.538Z,39.15
2022-08-05T15:17:03.925Z,40.09
2022-08-05T15:19:31.004Z,40.30
2022-08-05T15:21:59.865Z,40.76
2022-08-05T15:24:27.322Z,40.46
2022-08-05T15:26:53.733Z,40.82
2022-08-05T15:29:22.641Z,42.15
2022-08-05T15:31:52.910Z,43.44
2022-08-05T15:34:33.099Z,44.08
2022-08-05T15:37:06.143Z,45.15
2022-08-05T15:41:00.359Z,45.19
2022-08-05T15:42:50.320Z,45.31
2022-08-05T15:45:14.653Z,45.79
2022-08-05T15:47:42.341Z,45.67
2022-08-05T15:50:13.950Z,45.70
2022-08-05T15:52:52.853Z,45.51
2022-08-05T15:55:24.707Z,46.22
2022-08-05T15:57:51.960Z,46.79
2022-08-05T16:00:32.721Z,46.40
2022-08-05T16:03:05.628Z,47.19
2022-08-05T16:05:32.142Z,47.10
2022-08-05T16:07:58.584Z,47.49
2022-08-05T16:10:28.370Z,47.76
2022-08-05T16:12:55.944Z,48.04
2022-08-05T16:15:23.193Z,48.33
2022-08-05T16:17:57.352Z,48.27
2022-08-05T16:20:25.324Z,48.35
2022-08-05T16:22:51.758Z,47.89
2022-08-05T16:25:18.494Z,48.17
2022-08-05T16:28:00.339Z,48.63
2022-08-05T16:30:32.298Z,48.24
2022-08-05T16:33:00.359Z,48.77
2022-08-05T16:35:28.651Z,48.76
2022-08-05T16:38:01.816Z,48.76
2022-08-05T16:40:47.693Z,48.52
2022-08-05T16:43:18.982Z,49.04
2022-08-05T16:46:07.098Z,49.00
2022-08-05T16:48:34.033Z,48.68
2022-08-05T16:51:01.756Z,48.65
2022-08-05T16:53:31.912Z,48.49
2022-08-05T16:55:59.450Z,48.68
2022-08-05T16:58:26.003Z,48.54
2022-08-05T17:00:52.995Z,48.60
2022-08-05T17:03:20.072Z,48.93
2022-08-05T17:05:51.827Z,48.99
2022-08-05T17:08:33.466Z,49.09
2022-08-05T17:11:03.684Z,49.48
2022-08-05T17:13:41.184Z,49.16
2022-08-05T17:16:27.946Z,49.34
2022-08-05T17:18:54.668Z,49.41
2022-08-05T17:21:21.146Z,48.94
2022-08-05T17:24:05.607Z,48.98
2022-08-05T17:26:35.584Z,49.46
2022-08-05T17:29:07.495Z,49.10
2022-08-05T17:31:57.355Z,49.43
2022-08-05T17:34:29.731Z,49.86
2022-08-05T17:37:00.011Z,49.52
2022-08-05T17:39:29.826Z,50.19
2022-08-05T17:42:20.010Z,50.36
2022-08-05T17:44:50.435Z,50.23
2022-08-05T17:47:22.310Z,50.89
2022-08-05T17:50:00.270Z,50.89
2022-08-05T17:52:53.436Z,50.88
2022-08-05T17:55:27.186Z,51.09
2022-08-05T17:58:02.021Z,50.95
2022-08-05T18:00:29.476Z,51.01
2022-08-05T18:02:56.306Z,51.05
2022-08-05T18:05:23.714Z,51.01
2022-08-05T18:07:54.455Z,51.67
2022-08-05T18:10:23.730Z,51.89
2022-08-05T18:12:50.239Z,52.18
2022-08-05T18:15:17.151Z,52.66
2022-08-05T18:18:01.167Z,52.80
2022-08-05T18:20:31.899Z,52.82
2022-08-05T18:22:59.625Z,53.42
2022-08-05T18:25:35.165Z,53.63
2022-08-05T18:28:05.354Z,53.82
2022-08-05T18:30:33.049Z,54.62
2022-08-05T18:33:00.482Z,54.95
2022-08-05T18:35:59.952Z,54.89
2022-08-05T18:38:16.479Z,54.94
2022-08-05T18:41:56.092Z,55.13
2022-08-05T18:43:38.378Z,55.56
2022-08-05T18:46:10.288Z,55.82
2022-08-05T18:48:41.619Z,56.36
2022-08-05T18:52:05.360Z,56.53
2022-08-05T18:54:22.015Z,56.20
2022-08-05T18:56:51.214Z,56.43
2022-08-05T18:59:43.863Z,56.29
2022-08-05T19:02:11.188Z,56.67
2022-08-05T19:05:01.371Z,57.22
2022-08-05T19:07:46.231Z,56.86
2022-08-05T19:10:18.757Z,57.77
2022-08-05T19:12:55.829Z,57.96
2022-08-05T19:15:54.735Z,58.41
2022-08-05T19:18:20.981Z,58.79
2022-08-05T19:20:51.977Z,58.15
2022-08-05T19:23:22.643Z,58.45
2022-08-05T19:26:05.312Z,58.79
2022-08-05T19:28:35.692Z,58.76
2022-08-05T19:31:05.980Z,58.95
2022-08-05T19:33:36.413Z,59.40
2022-08-05T19:36:12.033Z,59.48
2022-08-05T19:38:41.507Z,59.46
2022-08-05T19:41:09.040Z,58.92
2022-08-05T19:44:07.011Z,59.29
2022-08-05T19:46:30.261Z,59.40
2022-08-05T19:49:03.080Z,59.41
2022-08-05T19:52:05.301Z,60.00
2022-08-05T19:54:25.547Z,59.26
2022-08-05T19:56:57.774Z,59.54
2022-08-05T19:59:56.020Z,60.05
2022-08-05T20:02:11.049Z,60.26
2022-08-05T20:04:37.719Z,59.91
2022-08-05T20:07:13.098Z,60.22
2022-08-05T20:09:53.649Z,60.41
2022-08-05T20:12:21.825Z,60.64
2022-08-05T20:14:52.083Z,61.01
2022-08-05T20:17:19.279Z,61.84
2022-08-05T20:19:50.264Z,62.36
2022-08-05T20:22:16.811Z,62.66
2022-08-05T20:24:43.215Z,63.69
2022-08-05T20:27:11.353Z,63.88
2022-08-05T20:29:38.354Z,64.55
2022-08-05T20:32:06.530Z,65.27
2022-08-05T20:34:33.014Z,64.97
2022-08-05T20:37:00.718Z,65.77
2022-08-05T20:39:35.663Z,66.75
2022-08-05T20:42:04.466Z,67.61
2022-08-05T20:44:33.058Z,68.05
2022-08-05T20:47:07.378Z,68.35
2022-08-05T20:49:38.067Z,68.63
2022-08-05T20:52:07.352Z,68.68
2022-08-05T20:54:59.068Z,69.37
2022-08-05T20:57:24.596Z,69.06
2022-08-05T21:00:41.204Z,69.23
2022-08-05T21:03:00.085Z,69.38
2022-08-05T21:05:28.518Z,69.62
2022-08-05T21:08:14.648Z,69.99
2022-08-05T21:10:48.583Z,69.73
2022-08-05T21:13:26.387Z,70.07
2022-08-05T21:16:02.277Z,70.20
2022-08-05T21:18:30.199Z,70.16
2022-08-05T21:20:57.453Z,70.42
2022-08-05T21:23:24.541Z,70.17
2022-08-05T21:25:51.455Z,70.30
2022-08-05T21:28:23.942Z,71.05
2022-08-05T21:30:57.230Z,71.04
2022-08-05T21:33:24.136Z,71.14
2022-08-05T21:36:03.888Z,71.34
2022-08-05T21:38:30.527Z,71.29
2022-08-05T21:40:57.130Z,71.38
2022-08-05T21:43:25.148Z,71.20
2022-08-05T21:45:57.780Z,71.06
2022-08-05T21:48:28.157Z,71.02
2022-08-05T21:50:55.174Z,70.78
2022-08-05T21:53:22.014Z,71.07
2022-08-05T21:56:05.209Z,70.98
2022-08-05T21:58:36.770Z,70.68
2022-08-05T22:01:10.636Z,70.52
2022-08-05T22:03:49.139Z,70.51
2022-08-05T22:06:22.582Z,70.29
2022-08-05T22:08:52.121Z,70.15
2022-08-05T22:11:34.715Z,70.07
2022-08-05T22:14:06.556Z,69.66
2022-08-05T22:16:51.818Z,69.40
2022-08-05T22:20:00.390Z,69.40
2022-08-05T22:22:06.679Z,69.05
2022-08-05T22:24:53.651Z,68.91
2022-08-05T22:28:09.781Z,68.66
2022-08-05T22:30:32.096Z,68.35
2022-08-05T22:32:59.143Z,67.98
2022-08-05T22:35:25.607Z,67.77
2022-08-05T22:37:58.598Z,67.96
2022-08-05T22:40:26.310Z,67.55
2022-08-05T22:42:57.768Z,67.54
2022-08-05T22:45:26.259Z,67.37
2022-08-05T22:47:55.403Z,67.24
2022-08-05T22:50:27.851Z,67.19
2022-08-05T22:52:54.840Z,66.76
2022-08-05T22:55:23.372Z,66.93
2022-08-05T22:57:53.668Z,66.73
2022-08-05T23:00:23.321Z,66.78
2022-08-05T23:02:51.821Z,66.24
2022-08-05T23:05:19.079Z,65.92
2022-08-05T23:07:50.210Z,66.10
2022-08-05T23:10:19.721Z,65.91
2022-08-05T23:12:47.062Z,65.62
2022-08-05T23:15:13.503Z,65.58
2022-08-05T23:18:00.128Z,65.76
2022-08-05T23:20:31.235Z,65.38
2022-08-05T23:22:58.994Z,65.21
2022-08-05T23:25:51.361Z,65.01
2022-08-05T23:28:13.175Z,64.72
2022-08-05T23:30:43.847Z,64.68
2022-08-05T23:33:25.719Z,64.56
2022-08-05T23:36:05.868Z,64.43
2022-08-05T23:38:36.528Z,64.31
2022-08-05T23:41:02.914Z,63.85
2022-08-05T23:44:05.366Z,63.87
2022-08-05T23:46:17.604Z,64.10
2022-08-05T23:48:46.958Z,63.44
2022-08-05T23:51:52.479Z,63.57
2022-08-05T23:54:25.878Z,63.13
2022-08-05T23:56:58.304Z,63.24
